Time;durP1;ratioP1;P1;durP2;ratioP2;P2;SDS_P1;SDS_P2;PMS_P1;PMS_P2;Temp;Humidity;BMP_temperature;BMP_pressure;BME280_temperature;BME280_humidity;BME280_pressure;Samples;Min_cycle;Max_cycle;Signal;HPM_P1;HPM_P2
2024/03/03 00:03:39;;;;;;;8.98;4.50;;;;;;;;;;12495085;23;20023;-74
2024/03/03 00:08:42;;;;;;;4.95;3.33;;;;;;;;;;12494145;23;20358;-74
2024/03/03 00:13:47;;;;;;;12.82;7.50;;;;;;;;;;12494513;23;20019;-74
2024/03/03 00:18:50;;;;;;;11.93;7.95;;;;;;;;;;12493990;23;20098;-74
2024/03/03 00:23:54;;;;;;;8.48;5.40;;;;;;;;;;12493282;23;20103;-74
2024/03/03 00:28:58;;;;;;;7.28;4.72;;;;;;;;;;12493394;23;20087;-74
2024/03/03 00:34:03;;;;;;;6.10;4.38;;;;;;;;;;12477217;23;20084;-74
2024/03/03 00:39:07;;;;;;;4.80;3.58;;;;;;;;;;12492881;23;20034;-74
2024/03/03 00:44:12;;;;;;;5.65;4.32;;;;;;;;;;12495083;23;20031;-74
2024/03/03 00:49:15;;;;;;;7.55;4.90;;;;;;;;;;12480375;23;20031;-74
2024/03/03 00:54:19;;;;;;;7.55;4.70;;;;;;;;;;12480331;23;20050;-74
2024/03/03 00:59:23;;;;;;;6.20;4.40;;;;;;;;;;12480421;23;20037;-74
2024/03/03 01:04:27;;;;;;;6.38;4.05;;;;;;;;;;12494666;23;20027;-74
2024/03/03 01:09:31;;;;;;;5.45;4.03;;;;;;;;;;12478143;23;20130;-74
2024/03/03 01:14:35;;;;;;;5.75;4.03;;;;;;;;;;12493667;23;20023;-74
2024/03/03 01:19:39;;;;;;;7.88;4.55;;;;;;;;;;12479460;23;20035;-74
2024/03/03 01:24:43;;;;;;;6.38;4.28;;;;;;;;;;12493284;23;20505;-74
2024/03/03 01:29:48;;;;;;;7.68;4.57;;;;;;;;;;12493139;23;20066;-74
2024/03/03 01:34:51;;;;;;;8.80;5.13;;;;;;;;;;12480324;23;20034;-74
2024/03/03 01:39:55;;;;;;;5.65;4.05;;;;;;;;;;12479695;23;20740;-74
2024/03/03 01:45:00;;;;;;;5.82;3.90;;;;;;;;;;12479360;23;20653;-74
2024/03/03 01:50:03;;;;;;;6.45;4.22;;;;;;;;;;12480431;23;20045;-74
2024/03/03 01:55:08;;;;;;;6.38;4.90;;;;;;;;;;12490786;23;20027;-74
2024/03/03 02:00:13;;;;;;;7.85;5.00;;;;;;;;;;12491253;23;20034;-74
2024/03/03 02:05:18;;;;;;;6.20;4.47;;;;;;;;;;12503319;23;20024;-74
2024/03/03 02:10:22;;;;;;;7.97;5.43;;;;;;;;;;12479111;23;20035;-74
2024/03/03 02:15:27;;;;;;;7.63;4.78;;;;;;;;;;12503022;23;20027;-74
2024/03/03 02:20:30;;;;;;;8.18;4.60;;;;;;;;;;12478524;23;20079;-74
2024/03/03 02:25:36;;;;;;;6.95;4.22;;;;;;;;;;12479241;23;20035;-74
2024/03/03 02:30:39;;;;;;;6.03;3.95;;;;;;;;;;12488608;23;20034;-74
2024/03/03 02:35:42;;;;;;;6.72;4.65;;;;;;;;;;12475531;23;20150;-74
2024/03/03 02:40:47;;;;;;;6.05;4.13;;;;;;;;;;12477425;23;20488;-74
2024/03/03 02:45:50;;;;;;;8.98;4.93;;;;;;;;;;12487329;23;20019;-74
2024/03/03 02:50:54;;;;;;;6.18;4.38;;;;;;;;;;12486345;23;20038;-74
2024/03/03 02:55:59;;;;;;;6.30;4.88;;;;;;;;;;12478332;23;20075;-74
2024/03/03 03:01:02;;;;;;;7.25;4.68;;;;;;;;;;12476299;23;20068;-74
2024/03/03 03:06:08;;;;;;;6.68;4.25;;;;;;;;;;12485038;23;20034;-74
2024/03/03 03:11:14;;;;;;;7.03;4.18;;;;;;;;;;12478303;23;20058;-74
2024/03/03 03:16:17;;;;;;;7.43;4.40;;;;;;;;;;12476815;23;20433;-74
2024/03/03 03:21:21;;;;;;;9.75;5.07;;;;;;;;;;12484699;23;20388;-74
2024/03/03 03:26:25;;;;;;;8.05;5.13;;;;;;;;;;12485311;23;20031;-74
2024/03/03 03:31:29;;;;;;;7.00;4.53;;;;;;;;;;12484350;23;20133;-74
2024/03/03 03:36:32;;;;;;;6.43;4.50;;;;;;;;;;12483925;23;20410;-74
2024/03/03 03:41:44;;;;;;;6.63;4.75;;;;;;;;;;12478724;23;20106;-74
2024/03/03 03:46:48;;;;;;;6.75;4.45;;;;;;;;;;12482971;23;20027;-74
2024/03/03 03:51:51;;;;;;;6.82;4.65;;;;;;;;;;12482254;23;20062;-74
2024/03/03 03:56:57;;;;;;;7.90;4.57;;;;;;;;;;12482444;23;20027;-74
2024/03/03 04:02:03;;;;;;;;;;;;;;;;;;12482175;23;20047;-74
2024/03/03 04:07:07;;;;;;;5.78;4.00;;;;;;;;;;12480995;23;20012;-74
2024/03/03 04:12:11;;;;;;;6.00;3.63;;;;;;;;;;12481111;23;20027;-74
2024/03/03 04:17:15;;;;;;;6.13;4.38;;;;;;;;;;12482363;23;20090;-74
2024/03/03 04:22:18;;;;;;;5.45;3.75;;;;;;;;;;12484011;23;20110;-74
2024/03/03 04:27:22;;;;;;;5.75;4.40;;;;;;;;;;12484045;23;20062;-74
2024/03/03 04:32:26;;;;;;;6.63;4.30;;;;;;;;;;12482849;23;20027;-74
2024/03/03 04:37:29;;;;;;;7.65;4.78;;;;;;;;;;12481858;23;20022;-74
2024/03/03 04:42:34;;;;;;;8.20;5.18;;;;;;;;;;12482843;23;20058;-74
2024/03/03 04:47:38;;;;;;;8.00;4.82;;;;;;;;;;12480069;23;20061;-74
2024/03/03 04:52:42;;;;;;;7.80;4.97;;;;;;;;;;12482517;23;20030;-74
2024/03/03 04:57:46;;;;;;;7.18;4.50;;;;;;;;;;12482343;23;20114;-74
2024/03/03 05:02:49;;;;;;;7.57;4.75;;;;;;;;;;12501529;23;20023;-74
2024/03/03 05:07:53;;;;;;;7.20;4.80;;;;;;;;;;12500193;23;20097;-74
2024/03/03 05:12:57;;;;;;;7.38;4.80;;;;;;;;;;12481296;23;20109;-74
2024/03/03 05:18:00;;;;;;;7.55;4.88;;;;;;;;;;12481467;23;20054;-74
2024/03/03 05:23:04;;;;;;;5.38;4.07;;;;;;;;;;12479999;23;20056;-74
2024/03/03 05:28:09;;;;;;;6.45;4.40;;;;;;;;;;12493732;23;20054;-74
2024/03/03 05:33:12;;;;;;;6.57;4.25;;;;;;;;;;12499307;23;20023;-74
2024/03/03 05:38:16;;;;;;;6.13;4.47;;;;;;;;;;12499374;23;20019;-74
2024/03/03 05:43:20;;;;;;;7.38;4.75;;;;;;;;;;12480267;23;20102;-74
2024/03/03 05:48:23;;;;;;;6.97;4.32;;;;;;;;;;12497988;23;20046;-74
2024/03/03 05:53:26;;;;;;;5.40;3.95;;;;;;;;;;12481726;23;20329;-74
2024/03/03 05:58:31;;;;;;;4.55;3.90;;;;;;;;;;12481538;23;20034;-74
2024/03/03 06:03:35;;;;;;;6.45;4.18;;;;;;;;;;12498342;23;20058;-74
2024/03/03 06:08:42;;;;;;;5.60;4.00;;;;;;;;;;12479388;23;20102;-74
2024/03/03 06:13:46;;;;;;;5.85;4.07;;;;;;;;;;12496979;23;20094;-74
2024/03/03 06:18:50;;;;;;;8.25;4.97;;;;;;;;;;12496737;23;20027;-74
2024/03/03 06:23:53;;;;;;;4.57;3.40;;;;;;;;;;12495879;23;20085;-74
2024/03/03 06:28:58;;;;;;;6.88;3.78;;;;;;;;;;12495569;23;20668;-74
2024/03/03 06:34:01;;;;;;;6.07;3.92;;;;;;;;;;12481488;23;20102;-74
2024/03/03 06:39:04;;;;;;;5.57;3.90;;;;;;;;;;12481070;23;20024;-74
2024/03/03 06:44:11;;;;;;;7.70;4.00;;;;;;;;;;12494568;23;20110;-74
2024/03/03 06:49:14;;;;;;;5.32;3.78;;;;;;;;;;12494241;23;20050;-74
2024/03/03 06:54:17;;;;;;;5.68;4.32;;;;;;;;;;12493747;23;20034;-74
2024/03/03 06:59:22;;;;;;;4.88;3.65;;;;;;;;;;12478222;23;20114;-74
2024/03/03 07:04:25;;;;;;;5.57;4.07;;;;;;;;;;12492864;23;20106;-74
2024/03/03 07:09:29;;;;;;;6.50;3.78;;;;;;;;;;12492383;23;20023;-74
2024/03/03 07:14:34;;;;;;;6.50;4.10;;;;;;;;;;12492626;23;20034;-74
2024/03/03 07:19:37;;;;;;;5.75;3.97;;;;;;;;;;12491287;23;20114;-74
2024/03/03 07:24:40;;;;;;;7.22;4.70;;;;;;;;;;12479939;23;20115;-74
2024/03/03 07:29:46;;;;;;;7.90;4.50;;;;;;;;;;12491340;23;20049;-74
2024/03/03 07:34:50;;;;;;;5.90;4.40;;;;;;;;;;12491030;23;20057;-74
2024/03/03 07:39:53;;;;;;;7.60;4.65;;;;;;;;;;12490951;23;20106;-74
2024/03/03 07:44:58;;;;;;;9.13;5.35;;;;;;;;;;12490748;23;20114;-74
2024/03/03 07:50:01;;;;;;;8.88;6.25;;;;;;;;;;12489997;23;20096;-74
2024/03/03 07:55:05;;;;;;;7.90;5.13;;;;;;;;;;12479172;23;20086;-74
2024/03/03 08:00:11;;;;;;;8.88;6.32;;;;;;;;;;12478745;23;20058;-74
2024/03/03 08:05:16;;;;;;;9.13;5.70;;;;;;;;;;12479081;23;20110;-74
2024/03/03 08:10:19;;;;;;;8.00;6.15;;;;;;;;;;12488142;23;20027;-74
2024/03/03 08:15:24;;;;;;;11.45;6.90;;;;;;;;;;12487607;23;20409;-74
2024/03/03 08:20:28;;;;;;;8.65;5.97;;;;;;;;;;12484429;23;20061;-74
2024/03/03 08:25:31;;;;;;;11.85;8.25;;;;;;;;;;12488040;23;20106;-74
2024/03/03 08:30:36;;;;;;;11.13;6.82;;;;;;;;;;12486671;23;20027;-74
2024/03/03 08:35:40;;;;;;;8.15;5.82;;;;;;;;;;12479483;23;20122;-74
2024/03/03 08:40:44;;;;;;;10.02;6.28;;;;;;;;;;12478894;23;20030;-74
2024/03/03 08:45:49;;;;;;;9.15;6.22;;;;;;;;;;12479710;23;20381;-74
2024/03/03 08:50:53;;;;;;;11.23;7.30;;;;;;;;;;12474769;23;20027;-74
2024/03/03 08:55:58;;;;;;;11.13;7.68;;;;;;;;;;12484840;23;20388;-74
2024/03/03 09:01:02;;;;;;;7.97;5.95;;;;;;;;;;12484741;23;20110;-74
2024/03/03 09:06:06;;;;;;;7.55;5.50;;;;;;;;;;12484279;23;20474;-74
2024/03/03 09:11:10;;;;;;;8.60;5.88;;;;;;;;;;12487724;23;20251;-75
2024/03/03 09:16:14;;;;;;;9.98;6.78;;;;;;;;;;12479395;23;20102;-74
2024/03/03 09:21:18;;;;;;;11.30;7.53;;;;;;;;;;12486368;23;20038;-74
2024/03/03 09:26:21;;;;;;;15.98;10.52;;;;;;;;;;12488851;23;20088;-74
2024/03/03 09:31:26;;;;;;;8.05;6.20;;;;;;;;;;12479364;23;20054;-83
2024/03/03 09:36:29;;;;;;;14.73;8.98;;;;;;;;;;12471944;23;20051;-83
2024/03/03 09:41:33;;;;;;;10.52;7.30;;;;;;;;;;12490343;23;20034;-83
2024/03/03 09:46:40;;;;;;;12.18;8.07;;;;;;;;;;12498423;23;20019;-83
2024/03/03 09:51:45;;;;;;;11.27;7.45;;;;;;;;;;12490459;23;20027;-81
2024/03/03 09:56:51;;;;;;;7.80;6.00;;;;;;;;;;12500236;23;20058;-83
2024/03/03 10:01:56;;;;;;;13.13;8.00;;;;;;;;;;12496565;23;20027;-86
2024/03/03 10:07:02;;;;;;;13.07;8.38;;;;;;;;;;12498682;23;20608;-86
2024/03/03 10:12:09;;;;;;;12.80;8.25;;;;;;;;;;12481262;23;20106;-86
2024/03/03 10:17:15;;;;;;;12.88;8.07;;;;;;;;;;12469990;23;20034;-84
2024/03/03 10:22:21;;;;;;;8.27;6.32;;;;;;;;;;12466112;23;20036;-84
2024/03/03 10:27:24;;;;;;;14.23;8.70;;;;;;;;;;12472249;23;20073;-84
2024/03/03 10:32:30;;;;;;;14.50;8.73;;;;;;;;;;12474774;23;20051;-84
2024/03/03 10:37:34;;;;;;;10.65;7.43;;;;;;;;;;12470568;23;20091;-85
2024/03/03 10:42:37;;;;;;;11.48;7.93;;;;;;;;;;12468944;23;20023;-84
2024/03/03 10:47:46;;;;;;;12.50;7.78;;;;;;;;;;12472044;23;20027;-85
2024/03/03 10:52:56;;;;;;;12.70;8.60;;;;;;;;;;12465021;23;20255;-85
2024/03/03 10:58:03;;;;;;;9.80;7.03;;;;;;;;;;12479205;23;20023;-85
2024/03/03 11:03:13;;;;;;;14.02;9.25;;;;;;;;;;12483012;23;20523;-84
2024/03/03 11:08:19;;;;;;;10.50;7.18;;;;;;;;;;12473855;23;20456;-85
2024/03/03 11:13:24;;;;;;;10.25;7.00;;;;;;;;;;12474396;23;20236;-84
2024/03/03 11:18:33;;;;;;;7.80;6.53;;;;;;;;;;12479347;23;20019;-73
2024/03/03 11:23:44;;;;;;;8.18;6.15;;;;;;;;;;12480957;23;20023;-73
2024/03/03 11:28:53;;;;;;;9.57;7.10;;;;;;;;;;12480304;23;20142;-73
2024/03/03 11:33:59;;;;;;;10.68;7.28;;;;;;;;;;12495344;23;20134;-72
2024/03/03 11:39:11;;;;;;;10.63;6.57;;;;;;;;;;12495021;23;20047;-72
2024/03/03 11:44:49;;;;;;;9.23;5.88;;;;;;;;;;12494028;23;20724;-73
2024/03/03 11:49:54;;;;;;;8.73;5.75;;;;;;;;;;12480007;23;20621;-73
2024/03/03 11:54:58;;;;;;;10.02;6.90;;;;;;;;;;12490463;23;20027;-73
2024/03/03 12:00:12;;;;;;;6.85;5.50;;;;;;;;;;12480583;23;20087;-73
2024/03/03 12:05:17;;;;;;;9.05;6.80;;;;;;;;;;12490767;23;20550;-72
2024/03/03 12:10:21;;;;;;;9.85;7.05;;;;;;;;;;12489652;23;20107;-72
2024/03/03 12:15:25;;;;;;;7.32;5.05;;;;;;;;;;12479654;23;20055;-73
2024/03/03 12:20:31;;;;;;;6.95;5.07;;;;;;;;;;12489062;23;20119;-72
2024/03/03 12:25:34;;;;;;;8.98;5.30;;;;;;;;;;12480670;23;20063;-72
2024/03/03 12:30:38;;;;;;;6.63;5.05;;;;;;;;;;12478955;23;20464;-73
2024/03/03 12:35:42;;;;;;;9.52;5.70;;;;;;;;;;12478977;23;20490;-73
2024/03/03 12:40:47;;;;;;;9.48;7.13;;;;;;;;;;12490628;23;20481;-72
2024/03/03 12:45:51;;;;;;;8.88;5.82;;;;;;;;;;12491594;23;20051;-73
2024/03/03 12:50:58;;;;;;;9.05;6.32;;;;;;;;;;12488157;23;20043;-73
2024/03/03 12:56:19;;;;;;;9.20;6.28;;;;;;;;;;12484076;23;20019;-73
2024/03/03 13:01:23;;;;;;;7.88;5.97;;;;;;;;;;12483528;23;20548;-72
2024/03/03 13:06:31;;;;;;;9.85;6.70;;;;;;;;;;12488539;23;20507;-73
2024/03/03 13:11:34;;;;;;;8.35;5.53;;;;;;;;;;12484166;23;20364;-72
2024/03/03 13:16:37;;;;;;;8.98;5.80;;;;;;;;;;12486555;23;20042;-72
2024/03/03 13:21:42;;;;;;;9.02;6.00;;;;;;;;;;12485793;23;20062;-72
2024/03/03 13:26:46;;;;;;;9.10;6.35;;;;;;;;;;12486057;23;20058;-72
2024/03/03 13:31:50;;;;;;;7.35;5.72;;;;;;;;;;12482060;23;20173;-72
2024/03/03 13:36:55;;;;;;;7.72;5.68;;;;;;;;;;12482243;23;20066;-72
2024/03/03 13:41:58;;;;;;;8.75;5.75;;;;;;;;;;12481088;23;20516;-72
2024/03/03 13:47:02;;;;;;;8.10;5.93;;;;;;;;;;12482892;23;20038;-73
2024/03/03 13:52:08;;;;;;;8.20;5.88;;;;;;;;;;12482218;23;20019;-72
2024/03/03 13:57:13;;;;;;;7.95;5.63;;;;;;;;;;12483594;23;20094;-72
2024/03/03 14:02:16;;;;;;;7.93;5.60;;;;;;;;;;12484320;23;20134;-73
2024/03/03 14:07:21;;;;;;;11.68;7.15;;;;;;;;;;12480221;23;20031;-73
2024/03/03 14:12:25;;;;;;;6.63;5.20;;;;;;;;;;12480313;23;20033;-73
2024/03/03 14:17:28;;;;;;;6.20;4.80;;;;;;;;;;12477943;23;20035;-73
2024/03/03 14:22:33;;;;;;;6.82;4.65;;;;;;;;;;12481580;23;20023;-74
2024/03/03 14:27:36;;;;;;;7.05;5.10;;;;;;;;;;12478975;23;20679;-73
2024/03/03 14:32:40;;;;;;;8.77;6.57;;;;;;;;;;12481477;23;20023;-73
2024/03/03 14:37:44;;;;;;;6.88;4.93;;;;;;;;;;12479862;23;20456;-73
2024/03/03 14:42:49;;;;;;;6.93;4.68;;;;;;;;;;12479892;23;20027;-73
2024/03/03 14:47:53;;;;;;;5.97;4.28;;;;;;;;;;12481492;23;20087;-73
2024/03/03 14:52:59;;;;;;;5.30;4.28;;;;;;;;;;12481409;23;20043;-73
2024/03/03 14:58:03;;;;;;;4.55;3.55;;;;;;;;;;12479455;23;20947;-73
2024/03/03 15:03:06;;;;;;;5.60;3.95;;;;;;;;;;12480182;23;20051;-73
2024/03/03 15:08:11;;;;;;;4.75;3.40;;;;;;;;;;12480348;23;20027;-73
2024/03/03 15:13:14;;;;;;;5.65;3.72;;;;;;;;;;12480895;23;20034;-73
2024/03/03 15:18:18;;;;;;;4.57;3.35;;;;;;;;;;12480179;23;20027;-73
2024/03/03 15:23:22;;;;;;;5.22;4.07;;;;;;;;;;12479513;23;20030;-73
2024/03/03 15:28:25;;;;;;;4.22;3.30;;;;;;;;;;12481174;23;20023;-73
2024/03/03 15:33:29;;;;;;;6.13;3.85;;;;;;;;;;12481061;23;20023;-73
2024/03/03 15:38:35;;;;;;;5.30;3.33;;;;;;;;;;12481183;23;20027;-73
2024/03/03 15:43:38;;;;;;;6.28;4.18;;;;;;;;;;12480818;23;20055;-73
2024/03/03 15:48:41;;;;;;;4.70;3.47;;;;;;;;;;12481107;23;20031;-73
2024/03/03 15:53:46;;;;;;;5.05;3.65;;;;;;;;;;12480818;23;20525;-73
2024/03/03 15:58:49;;;;;;;5.45;3.42;;;;;;;;;;12479156;23;20031;-73
2024/03/03 16:03:53;;;;;;;4.50;3.20;;;;;;;;;;12479273;23;20051;-73
2024/03/03 16:09:00;;;;;;;5.00;3.47;;;;;;;;;;12479218;23;20087;-73
2024/03/03 16:14:03;;;;;;;4.28;3.25;;;;;;;;;;12498709;23;20031;-73
2024/03/03 16:19:07;;;;;;;4.35;3.22;;;;;;;;;;12499523;23;20110;-73
2024/03/03 16:24:12;;;;;;;4.68;3.58;;;;;;;;;;12499861;23;20415;-73
2024/03/03 16:29:16;;;;;;;5.40;3.83;;;;;;;;;;12499026;23;20071;-73
2024/03/03 16:34:20;;;;;;;4.95;2.95;;;;;;;;;;12484069;23;20090;-73
2024/03/03 16:39:25;;;;;;;3.33;2.38;;;;;;;;;;12485811;23;20027;-73
2024/03/03 16:44:28;;;;;;;3.30;2.47;;;;;;;;;;12498829;23;20058;-73
2024/03/03 16:49:32;;;;;;;4.43;2.75;;;;;;;;;;12478376;23;20027;-73
2024/03/03 16:54:36;;;;;;;3.13;2.35;;;;;;;;;;12494754;23;20031;-73
2024/03/03 16:59:41;;;;;;;3.63;2.45;;;;;;;;;;12495455;23;20016;-73
2024/03/03 17:04:44;;;;;;;3.35;2.60;;;;;;;;;;12494073;23;20417;-73
2024/03/03 17:09:49;;;;;;;3.20;2.47;;;;;;;;;;12481914;23;20102;-73
2024/03/03 17:14:52;;;;;;;3.58;2.47;;;;;;;;;;12495767;23;20195;-73
2024/03/03 17:55:20;;;;;;;13.63;8.68;;;;;;;;;;12499084;23;20020;-91
2024/03/03 18:00:43;;;;;;;16.35;10.73;;;;;;;;;;12473031;23;20031;-92
2024/03/03 18:11:25;;;;;;;14.60;8.85;;;;;;;;;;12452074;23;20038;-91
2024/03/03 18:16:45;;;;;;;10.15;7.03;;;;;;;;;;12497535;23;20030;-93
2024/03/03 18:22:01;;;;;;;10.60;6.03;;;;;;;;;;12501828;23;20020;-93
2024/03/03 18:34:32;;;;;;;8.15;5.05;;;;;;;;;;12362396;23;20028;-94
2024/03/03 18:40:43;;;;;;;;;;;;;;;;;;;;;
2024/03/03 18:46:14;;;;;;;9.43;6.20;;;;;;;;;;12342410;23;20035;-91
2024/03/03 18:51:45;;;;;;;9.52;6.20;;;;;;;;;;12353164;23;20055;-91
2024/03/03 19:08:20;;;;;;;9.70;5.80;;;;;;;;;;12429947;23;20020;-91
2024/03/03 19:13:59;;;;;;;10.00;6.38;;;;;;;;;;12394239;23;20111;-93
2024/03/03 19:38:03;;;;;;;8.63;6.05;;;;;;;;;;12078504;24;20102;-91
2024/03/03 19:50:45;;;;;;;8.45;6.30;;;;;;;;;;11824602;24;20028;-93
2024/03/03 20:04:18;;;;;;;;;;;;;;;;;;;;;
2024/03/03 20:21:49;;;;;;;;;;;;;;;;;;;;;
2024/03/03 20:38:31;;;;;;;8.13;5.63;;;;;;;;;;12236738;24;20538;-91
2024/03/03 21:07:49;;;;;;;10.97;7.13;;;;;;;;;;12696344;22;4038034;-84
2024/03/03 21:12:55;;;;;;;10.27;6.43;;;;;;;;;;12835475;23;20024;-85
2024/03/03 21:17:58;;;;;;;9.68;5.95;;;;;;;;;;12857845;23;20024;-85
2024/03/03 21:23:03;;;;;;;11.60;7.32;;;;;;;;;;12863426;23;20020;-85
2024/03/03 21:28:12;;;;;;;13.50;8.07;;;;;;;;;;12860221;23;20047;-85
2024/03/03 21:33:17;;;;;;;14.07;8.48;;;;;;;;;;12864681;22;20024;-83
2024/03/03 21:38:23;;;;;;;12.77;8.10;;;;;;;;;;12861829;23;20020;-84
2024/03/03 21:43:26;;;;;;;14.10;8.77;;;;;;;;;;12860288;23;20024;-82
2024/03/03 21:48:30;;;;;;;12.93;7.85;;;;;;;;;;12862361;23;20402;-85
2024/03/03 21:53:36;;;;;;;12.35;7.90;;;;;;;;;;12854890;22;20016;-83
2024/03/03 21:58:39;;;;;;;11.02;7.13;;;;;;;;;;12861947;23;20021;-85
2024/03/03 22:03:44;;;;;;;10.07;6.50;;;;;;;;;;12860700;23;20461;-84
2024/03/03 22:08:49;;;;;;;8.93;5.95;;;;;;;;;;12906554;23;20027;-85
2024/03/03 22:13:53;;;;;;;9.05;5.63;;;;;;;;;;12905109;22;20358;-84
2024/03/03 22:18:58;;;;;;;9.77;6.40;;;;;;;;;;12902735;23;20082;-84
2024/03/03 22:24:07;;;;;;;9.75;6.15;;;;;;;;;;12903768;22;20559;-84
2024/03/03 22:29:11;;;;;;;9.07;5.78;;;;;;;;;;12902841;23;20043;-84
2024/03/03 22:34:16;;;;;;;9.30;6.13;;;;;;;;;;12908325;22;20031;-85
2024/03/03 22:39:26;;;;;;;9.13;6.65;;;;;;;;;;12905461;23;20028;-84
2024/03/03 22:44:30;;;;;;;9.88;6.22;;;;;;;;;;12909703;22;20027;-83
2024/03/03 22:49:33;;;;;;;10.85;7.07;;;;;;;;;;12906344;23;20027;-85
2024/03/03 22:54:39;;;;;;;8.48;6.07;;;;;;;;;;12906530;22;20031;-84
2024/03/03 22:59:44;;;;;;;9.82;6.45;;;;;;;;;;12908293;23;20024;-84
2024/03/03 23:04:53;;;;;;;11.85;7.88;;;;;;;;;;12905515;22;20030;-84
2024/03/03 23:10:01;;;;;;;13.23;8.15;;;;;;;;;;12906181;22;20020;-84
2024/03/03 23:15:06;;;;;;;;;;;;;;;;;;12905755;22;20028;-83
2024/03/03 23:20:10;;;;;;;11.50;7.53;;;;;;;;;;12889968;22;19977;-86
2024/03/03 23:25:16;;;;;;;12.93;7.45;;;;;;;;;;12889235;22;20016;-86
2024/03/03 23:30:19;;;;;;;11.48;6.50;;;;;;;;;;12891706;22;20083;-86
2024/03/03 23:35:23;;;;;;;11.10;6.13;;;;;;;;;;12890954;22;20066;-85
2024/03/03 23:40:27;;;;;;;10.80;6.35;;;;;;;;;;12889985;22;20062;-86
2024/03/03 23:45:31;;;;;;;7.70;5.10;;;;;;;;;;12890250;22;20054;-86
2024/03/03 23:50:34;;;;;;;9.15;5.90;;;;;;;;;;12897200;22;20024;-88
2024/03/03 23:55:39;;;;;;;10.05;6.18;;;;;;;;;;12902536;22;20082;-87
